createdAt,value
2018-05-09T00:01:47.876Z,1.53
2018-05-09T00:04:53.801Z,1.43
2018-05-09T00:07:59.634Z,1.70
2018-05-09T00:11:05.847Z,1.20
2018-05-09T00:14:12.573Z,1.97
2018-05-09T00:17:19.633Z,1.40
2018-05-09T00:20:25.858Z,1.10
2018-05-09T00:23:31.977Z,1.67
2018-05-09T00:26:38.080Z,1.30
2018-05-09T00:29:44.717Z,1.43
2018-05-09T00:32:51.486Z,1.63
2018-05-09T00:35:58.516Z,1.50
2018-05-09T00:39:04.128Z,1.67
2018-05-09T00:42:09.332Z,1.50
2018-05-09T00:45:15.253Z,1.53
2018-05-09T00:48:20.479Z,1.90
2018-05-09T00:51:26.577Z,1.97
2018-05-09T00:54:35.173Z,1.50
2018-05-09T00:57:40.392Z,2.07
2018-05-09T01:00:46.529Z,1.60
2018-05-09T01:03:52.479Z,1.40
2018-05-09T01:06:57.720Z,1.60
2018-05-09T01:10:03.221Z,2.07
2018-05-09T01:13:09.349Z,1.30
2018-05-09T01:16:14.709Z,2.00
2018-05-09T01:19:20.871Z,1.53
2018-05-09T01:22:26.811Z,2.13
2018-05-09T01:25:32.024Z,1.90
2018-05-09T01:28:36.719Z,2.10
2018-05-09T01:31:41.933Z,2.23
2018-05-09T01:34:47.154Z,1.80
2018-05-09T01:37:52.365Z,1.83
2018-05-09T01:40:57.338Z,1.70
2018-05-09T01:44:03.998Z,1.60
2018-05-09T01:47:11.094Z,1.60
2018-05-09T01:50:16.241Z,1.80
2018-05-09T01:53:21.454Z,1.70
2018-05-09T01:56:26.670Z,2.17
2018-05-09T01:59:32.793Z,1.70
2018-05-09T02:02:38.010Z,1.80
2018-05-09T02:05:42.934Z,2.07
2018-05-09T02:08:47.873Z,1.87
2018-05-09T02:11:53.150Z,2.00
2018-05-09T02:14:59.275Z,1.90
2018-05-09T02:18:05.102Z,1.83
2018-05-09T02:21:11.230Z,2.00
2018-05-09T02:24:18.386Z,1.63
2018-05-09T02:27:25.543Z,2.80
2018-05-09T02:30:31.406Z,1.53
2018-05-09T02:33:38.236Z,1.70
2018-05-09T02:36:45.366Z,1.77
2018-05-09T02:39:51.871Z,1.63
2018-05-09T02:42:58.013Z,1.60
2018-05-09T02:46:04.882Z,1.57
2018-05-09T02:49:11.942Z,1.50
2018-05-09T02:52:18.074Z,1.60
2018-05-09T02:55:24.294Z,2.00
2018-05-09T02:58:29.491Z,1.90
2018-05-09T03:01:34.519Z,1.53
2018-05-09T03:04:41.410Z,1.97
2018-05-09T03:07:47.422Z,1.57
2018-05-09T03:10:54.566Z,1.83
2018-05-09T03:14:00.382Z,1.13
2018-05-09T03:17:06.045Z,1.80
2018-05-09T03:20:12.199Z,1.87
2018-05-09T03:23:17.749Z,1.93
2018-05-09T03:26:25.041Z,2.10
2018-05-09T03:29:30.775Z,1.77
2018-05-09T03:32:35.991Z,1.63
2018-05-09T03:35:43.166Z,1.90
2018-05-09T03:38:50.011Z,2.03
2018-05-09T03:41:56.733Z,2.17
2018-05-09T03:45:02.589Z,1.40
2018-05-09T03:48:07.858Z,1.67
2018-05-09T03:51:12.838Z,1.60
2018-05-09T03:54:19.742Z,1.60
2018-05-09T03:57:26.682Z,1.70
2018-05-09T04:00:32.720Z,1.67
2018-05-09T04:03:50.042Z,1.70
2018-05-09T04:07:06.259Z,2.00
2018-05-09T04:10:11.913Z,1.90
2018-05-09T04:13:19.057Z,1.93
2018-05-09T04:16:25.187Z,2.10
2018-05-09T04:19:31.097Z,1.80
2018-05-09T04:22:37.930Z,1.77
2018-05-09T04:25:43.767Z,2.57
2018-05-09T04:28:50.746Z,1.80
2018-05-09T04:31:56.587Z,1.77
2018-05-09T04:35:02.543Z,1.80
2018-05-09T04:38:08.502Z,1.70
2018-05-09T04:41:14.414Z,1.70
2018-05-09T04:44:20.236Z,2.00
2018-05-09T04:47:26.448Z,2.10
2018-05-09T04:50:32.406Z,2.33
2018-05-09T04:53:37.623Z,2.33
2018-05-09T04:56:44.512Z,1.97
2018-05-09T04:59:50.686Z,1.90
2018-05-09T05:02:55.907Z,2.00
2018-05-09T05:06:02.954Z,2.17
2018-05-09T05:09:09.086Z,2.00
2018-05-09T05:12:14.934Z,1.80
2018-05-09T05:15:21.062Z,1.93
2018-05-09T05:18:26.274Z,1.80
2018-05-09T05:21:31.502Z,1.60
2018-05-09T05:24:36.816Z,2.30
2018-05-09T05:27:42.915Z,2.20
2018-05-09T05:30:47.850Z,2.30
2018-05-09T05:33:53.077Z,1.67
2018-05-09T05:36:58.291Z,1.97
2018-05-09T05:40:03.312Z,2.03
2018-05-09T05:43:09.363Z,2.13
2018-05-09T05:46:14.586Z,2.40
2018-05-09T05:49:20.635Z,2.43
2018-05-09T05:52:25.851Z,2.40
2018-05-09T05:55:32.942Z,1.77
2018-05-09T05:58:38.819Z,2.40
2018-05-09T06:01:44.990Z,1.73
2018-05-09T06:04:50.023Z,2.17
2018-05-09T06:07:56.188Z,2.13
2018-05-09T06:11:02.407Z,2.20
2018-05-09T06:14:09.312Z,2.23
2018-05-09T06:17:15.411Z,2.30
2018-05-09T06:20:22.507Z,2.10
2018-05-09T06:23:28.668Z,1.97
2018-05-09T06:26:34.793Z,2.43
2018-05-09T06:29:41.838Z,1.80
2018-05-09T06:32:47.965Z,2.10
2018-05-09T06:35:53.184Z,2.60
2018-05-09T06:39:00.048Z,2.43
2018-05-09T06:42:05.269Z,3.00
2018-05-09T06:45:10.479Z,2.50
2018-05-09T06:48:15.689Z,2.47
2018-05-09T06:51:20.922Z,2.30
2018-05-09T06:54:27.032Z,1.90
2018-05-09T06:57:33.175Z,1.63
2018-05-09T07:00:40.937Z,1.87
2018-05-09T07:03:46.762Z,2.27
2018-05-09T07:06:51.981Z,2.10
2018-05-09T07:09:56.920Z,1.90
2018-05-09T07:13:02.151Z,2.37
2018-05-09T07:16:07.386Z,1.83
2018-05-09T07:19:12.603Z,2.40
2018-05-09T07:22:17.846Z,1.90
2018-05-09T07:25:24.181Z,1.97
2018-05-09T07:28:30.818Z,1.93
2018-05-09T07:31:37.180Z,2.50
2018-05-09T07:34:42.412Z,3.00
2018-05-09T07:37:47.806Z,2.00
2018-05-09T07:40:53.047Z,1.90
2018-05-09T07:43:58.263Z,2.20
2018-05-09T07:47:03.474Z,2.30
2018-05-09T07:50:08.700Z,2.20
2018-05-09T07:53:15.503Z,2.10
2018-05-09T07:56:21.616Z,1.93
2018-05-09T07:59:27.763Z,2.73
2018-05-09T08:02:33.927Z,1.90
2018-05-09T08:05:40.091Z,2.37
2018-05-09T08:08:47.034Z,2.50
2018-05-09T08:11:52.841Z,2.50
2018-05-09T08:14:58.769Z,2.13
2018-05-09T08:18:05.498Z,2.30
2018-05-09T08:21:12.567Z,2.27
2018-05-09T08:24:18.725Z,2.03
2018-05-09T08:27:24.654Z,2.00
2018-05-09T08:30:31.294Z,2.60
2018-05-09T08:33:36.490Z,2.90
2018-05-09T08:36:43.530Z,2.10
2018-05-09T08:39:50.773Z,2.03
2018-05-09T08:42:57.524Z,2.30
2018-05-09T08:46:04.582Z,2.10
2018-05-09T08:49:10.719Z,1.90
2018-05-09T08:52:16.866Z,2.73
2018-05-09T08:55:22.865Z,2.67
2018-05-09T08:58:28.854Z,2.47
2018-05-09T09:01:35.004Z,2.60
2018-05-09T09:04:41.151Z,2.30
2018-05-09T09:07:47.466Z,2.03
2018-05-09T09:10:54.688Z,2.50
2018-05-09T09:14:00.560Z,2.87
2018-05-09T09:17:06.475Z,2.20
2018-05-09T09:20:12.408Z,2.60
2018-05-09T09:23:19.267Z,2.63
2018-05-09T09:26:25.311Z,2.60
2018-05-09T09:29:31.453Z,2.43
2018-05-09T09:32:37.416Z,2.87
2018-05-09T09:35:43.558Z,2.10
2018-05-09T09:38:48.829Z,2.80
2018-05-09T09:41:54.730Z,3.10
2018-05-09T09:44:59.950Z,3.00
2018-05-09T09:48:04.977Z,2.40
2018-05-09T09:51:11.214Z,3.40
2018-05-09T09:54:18.356Z,2.83
2018-05-09T09:57:24.197Z,2.40
2018-05-09T10:00:30.137Z,2.57
2018-05-09T10:03:36.194Z,2.47
2018-05-09T10:06:42.405Z,2.77
2018-05-09T10:09:49.467Z,2.73
2018-05-09T10:12:55.587Z,2.37
2018-05-09T10:16:01.630Z,2.63
2018-05-09T10:19:08.682Z,3.00
2018-05-09T10:22:15.746Z,3.10
2018-05-09T10:25:22.849Z,3.10
2018-05-09T10:28:28.999Z,3.40
2018-05-09T10:31:35.616Z,3.00
2018-05-09T10:34:40.711Z,3.17
2018-05-09T10:37:46.121Z,2.53
2018-05-09T10:40:52.259Z,3.10
2018-05-09T10:43:58.398Z,2.90
2018-05-09T10:47:05.486Z,2.80
2018-05-09T10:50:11.391Z,3.30
2018-05-09T10:53:18.189Z,2.63
2018-05-09T10:56:24.391Z,2.60
2018-05-09T10:59:29.612Z,3.07
2018-05-09T11:02:34.836Z,3.37
2018-05-09T11:05:40.971Z,3.20
2018-05-09T11:08:46.235Z,3.27
2018-05-09T11:11:52.371Z,3.00
2018-05-09T11:14:58.006Z,2.90
2018-05-09T11:18:05.110Z,3.17
2018-05-09T11:21:11.250Z,2.70
2018-05-09T11:24:17.627Z,3.20
2018-05-09T11:27:23.936Z,3.20
2018-05-09T11:30:30.058Z,2.83
2018-05-09T11:33:36.003Z,3.50
2018-05-09T11:36:42.884Z,3.10
2018-05-09T11:39:49.961Z,3.37
2018-05-09T11:42:56.160Z,3.20
2018-05-09T11:46:02.142Z,3.20
2018-05-09T11:49:08.978Z,2.90
2018-05-09T11:52:16.185Z,3.43
2018-05-09T11:55:22.435Z,3.00
2018-05-09T11:58:28.394Z,3.40
2018-05-09T12:01:35.387Z,3.33
2018-05-09T12:04:41.537Z,4.50
2018-05-09T12:07:47.457Z,3.10
2018-05-09T12:10:53.552Z,3.37
2018-05-09T12:13:59.378Z,3.20
2018-05-09T12:17:04.358Z,3.33
2018-05-09T12:20:10.579Z,3.33
2018-05-09T12:23:17.329Z,3.00
2018-05-09T12:26:23.182Z,3.90
2018-05-09T12:29:29.522Z,2.97
2018-05-09T12:32:34.731Z,3.40
2018-05-09T12:35:39.955Z,3.17
2018-05-09T12:38:44.949Z,3.70
2018-05-09T12:41:51.995Z,3.83
2018-05-09T12:44:57.648Z,3.50
2018-05-09T12:48:04.557Z,3.33
2018-05-09T12:51:10.461Z,3.23
2018-05-09T12:54:16.594Z,3.50
2018-05-09T12:57:23.453Z,3.20
2018-05-09T13:00:29.654Z,3.30
2018-05-09T13:03:36.558Z,4.07
2018-05-09T13:06:42.698Z,3.57
2018-05-09T13:09:48.634Z,3.40
2018-05-09T13:12:54.298Z,3.63
2018-05-09T13:16:01.313Z,3.30
2018-05-09T13:19:08.340Z,3.73
2018-05-09T13:22:14.485Z,3.17
2018-05-09T13:25:19.705Z,3.60
2018-05-09T13:28:24.927Z,3.50
2018-05-09T13:31:31.979Z,4.20
2018-05-09T13:34:38.114Z,3.33
2018-05-09T13:37:43.326Z,3.87
2018-05-09T13:40:48.570Z,3.70
2018-05-09T13:43:53.811Z,4.07
2018-05-09T13:46:58.811Z,3.57
2018-05-09T13:50:03.786Z,2.70
2018-05-09T13:53:08.798Z,3.60
2018-05-09T13:56:14.054Z,3.40
2018-05-09T13:59:19.269Z,3.37
2018-05-09T14:02:24.505Z,3.03
2018-05-09T14:05:29.759Z,3.63
2018-05-09T14:08:34.705Z,3.97
2018-05-09T14:11:39.926Z,3.47
2018-05-09T14:14:45.196Z,4.23
2018-05-09T14:17:50.418Z,3.40
2018-05-09T14:20:55.641Z,3.17
2018-05-09T14:24:00.890Z,3.37
2018-05-09T14:27:06.906Z,3.60
2018-05-09T14:30:13.067Z,3.70
2018-05-09T14:33:19.019Z,3.80
2018-05-09T14:36:24.731Z,3.43
2018-05-09T14:39:31.596Z,3.43
2018-05-09T14:42:38.362Z,3.83
2018-05-09T14:45:44.256Z,3.77
2018-05-09T14:48:49.466Z,3.23
2018-05-09T14:51:54.840Z,3.60
2018-05-09T14:55:00.980Z,4.30
2018-05-09T14:58:06.645Z,3.63
2018-05-09T15:01:12.805Z,3.63
2018-05-09T15:04:19.770Z,3.40
2018-05-09T15:07:25.731Z,4.10
2018-05-09T15:10:30.955Z,3.57
2018-05-09T15:13:37.987Z,3.60
2018-05-09T15:16:45.055Z,3.23
2018-05-09T15:19:51.165Z,3.97
2018-05-09T15:22:57.379Z,3.37
2018-05-09T15:26:03.414Z,3.33
2018-05-09T15:29:10.518Z,3.90
2018-05-09T15:32:16.669Z,3.73
2018-05-09T15:35:21.624Z,3.90
2018-05-09T15:38:28.306Z,3.40
2018-05-09T15:41:34.262Z,3.90
2018-05-09T15:44:40.172Z,3.37
2018-05-09T15:47:45.544Z,3.30
2018-05-09T15:50:52.391Z,3.50
2018-05-09T15:53:58.232Z,3.53
2018-05-09T15:57:05.291Z,3.30
2018-05-09T16:00:11.147Z,3.40
2018-05-09T16:03:16.092Z,3.40
2018-05-09T16:06:21.734Z,3.20
2018-05-09T16:09:27.615Z,3.10
2018-05-09T16:12:33.719Z,3.20
2018-05-09T16:15:39.527Z,2.80
2018-05-09T16:18:44.466Z,2.97
2018-05-09T16:21:49.988Z,3.30
2018-05-09T16:24:56.127Z,2.83
2018-05-09T16:28:01.991Z,2.97
2018-05-09T16:31:06.926Z,3.00
2018-05-09T16:34:13.974Z,2.87
2018-05-09T16:37:20.112Z,3.43
2018-05-09T16:40:25.759Z,2.60
2018-05-09T16:43:30.723Z,3.90
2018-05-09T16:46:35.952Z,4.13
2018-05-09T16:49:41.167Z,4.40
2018-05-09T16:52:47.162Z,3.40
2018-05-09T16:55:53.565Z,2.93
2018-05-09T16:59:00.640Z,3.20
2018-05-09T17:02:07.116Z,2.97
2018-05-09T17:05:12.069Z,3.23
2018-05-09T17:08:17.550Z,2.73
2018-05-09T17:11:23.446Z,3.33
2018-05-09T17:14:28.815Z,3.33
2018-05-09T17:17:34.431Z,2.30
2018-05-09T17:20:40.080Z,3.07
2018-05-09T17:23:45.043Z,3.13
2018-05-09T17:26:50.695Z,2.50
2018-05-09T17:29:56.581Z,2.53
2018-05-09T17:33:01.534Z,2.70
2018-05-09T17:36:06.488Z,2.63
2018-05-09T17:39:11.694Z,2.83
2018-05-09T17:42:17.615Z,2.70
2018-05-09T17:45:22.861Z,2.73
2018-05-09T17:48:28.601Z,3.00
2018-05-09T17:51:34.815Z,2.33
2018-05-09T17:54:40.362Z,2.70
2018-05-09T17:57:47.132Z,3.07
2018-05-09T18:00:53.290Z,3.07
2018-05-09T18:03:58.172Z,2.77
2018-05-09T18:07:03.871Z,2.50
2018-05-09T18:10:09.091Z,2.63
2018-05-09T18:13:14.920Z,3.43
2018-05-09T18:16:20.575Z,3.03
2018-05-09T18:19:25.850Z,2.90
2018-05-09T18:22:31.880Z,2.67
2018-05-09T18:25:38.005Z,3.00
2018-05-09T18:28:43.869Z,2.90
2018-05-09T18:31:50.049Z,2.60
2018-05-09T18:34:55.706Z,2.97
2018-05-09T18:38:00.935Z,3.60
2018-05-09T18:41:05.859Z,2.50
2018-05-09T18:44:11.774Z,2.70
2018-05-09T18:47:16.851Z,3.20
2018-05-09T18:50:22.630Z,3.00
2018-05-09T18:53:28.762Z,3.00
2018-05-09T18:56:34.927Z,3.47
2018-05-09T18:59:40.408Z,2.40
2018-05-09T19:02:45.500Z,2.73
2018-05-09T19:05:50.434Z,2.70
2018-05-09T19:08:56.386Z,2.67
2018-05-09T19:12:01.624Z,2.67
2018-05-09T19:15:06.857Z,2.30
2018-05-09T19:18:12.067Z,2.60
2018-05-09T19:21:17.579Z,2.80
2018-05-09T19:24:22.811Z,2.63
2018-05-09T19:27:29.728Z,3.27
2018-05-09T19:30:35.464Z,3.07
2018-05-09T19:33:41.177Z,3.87
2018-05-09T19:36:46.429Z,2.70
2018-05-09T19:39:52.559Z,2.93
2018-05-09T19:42:59.106Z,3.60
2018-05-09T19:46:05.921Z,3.80
2018-05-09T19:49:10.864Z,2.60
2018-05-09T19:52:17.626Z,3.07
2018-05-09T19:55:24.125Z,3.87
2018-05-09T19:58:29.892Z,2.97
2018-05-09T20:01:34.851Z,3.90
2018-05-09T20:04:40.713Z,3.03
2018-05-09T20:07:46.582Z,4.20
2018-05-09T20:10:51.574Z,3.20
2018-05-09T20:13:57.717Z,3.10
2018-05-09T20:17:05.552Z,3.50
2018-05-09T20:20:12.043Z,3.27
2018-05-09T20:23:18.887Z,2.83
2018-05-09T20:26:24.086Z,2.67
2018-05-09T20:29:29.126Z,3.07
2018-05-09T20:32:39.104Z,2.83
2018-05-09T20:35:44.555Z,2.70
2018-05-09T20:38:49.532Z,2.60
2018-05-09T20:41:55.403Z,2.53
2018-05-09T20:45:01.778Z,2.60
2018-05-09T20:48:06.398Z,2.77
2018-05-09T20:51:12.240Z,2.13
2018-05-09T20:54:17.169Z,2.50
2018-05-09T20:57:22.682Z,2.90
2018-05-09T21:00:28.381Z,2.47
2018-05-09T21:03:34.247Z,2.27
2018-05-09T21:06:39.605Z,2.37
2018-05-09T21:09:46.211Z,2.27
2018-05-09T21:12:51.430Z,2.70
2018-05-09T21:15:58.319Z,2.37
2018-05-09T21:19:03.783Z,2.40
2018-05-09T21:22:08.721Z,2.60
2018-05-09T21:25:14.346Z,1.90
2018-05-09T21:28:20.835Z,2.60
2018-05-09T21:31:26.255Z,2.23
2018-05-09T21:34:31.327Z,2.33
2018-05-09T21:37:36.267Z,1.83
2018-05-09T21:40:42.335Z,2.50
2018-05-09T21:43:48.427Z,1.80
2018-05-09T21:46:54.554Z,2.40
2018-05-09T21:49:59.793Z,2.10
2018-05-09T21:53:05.702Z,2.63
2018-05-09T21:56:10.670Z,2.57
2018-05-09T21:59:16.841Z,2.40
2018-05-09T22:02:22.222Z,2.23
2018-05-09T22:05:28.926Z,2.50
2018-05-09T22:08:34.265Z,2.20
2018-05-09T22:11:40.383Z,1.87
2018-05-09T22:14:46.534Z,2.13
2018-05-09T22:17:53.073Z,1.97
2018-05-09T22:20:59.217Z,2.00
2018-05-09T22:24:05.126Z,2.13
2018-05-09T22:27:11.075Z,2.10
2018-05-09T22:30:16.634Z,2.00
2018-05-09T22:33:23.391Z,2.30
2018-05-09T22:36:29.277Z,2.37
2018-05-09T22:39:35.026Z,2.10
2018-05-09T22:42:40.874Z,1.87
2018-05-09T22:45:46.521Z,2.33
2018-05-09T22:48:51.477Z,2.17
2018-05-09T22:51:57.534Z,2.20
2018-05-09T22:55:03.209Z,2.20
2018-05-09T22:58:08.310Z,2.20
2018-05-09T23:01:13.298Z,2.23
2018-05-09T23:04:18.544Z,2.23
2018-05-09T23:07:23.763Z,2.10
2018-05-09T23:10:29.388Z,2.03
2018-05-09T23:13:36.446Z,2.03
2018-05-09T23:16:43.513Z,2.40
2018-05-09T23:19:49.682Z,2.43
2018-05-09T23:22:55.818Z,2.10
2018-05-09T23:26:01.939Z,2.30
2018-05-09T23:29:08.095Z,1.73
2018-05-09T23:32:13.326Z,2.27
2018-05-09T23:35:18.547Z,2.20
2018-05-09T23:38:23.790Z,2.50
2018-05-09T23:41:29.923Z,2.10
2018-05-09T23:44:35.595Z,2.33
2018-05-09T23:47:42.236Z,2.00
2018-05-09T23:50:48.139Z,1.53
2018-05-09T23:53:53.356Z,2.50
2018-05-09T23:56:58.584Z,2.40
